Flinter Rose — PBUB — position and weather

sailwx.info

Track history (hours):
 
Tides and Currents Weather Stations Pressure Air Temp Water Temp Dewpoint Dewpoint Depression Visibility Wind Speed Wind Dir Waves Ship Positions

Flinter Rose

Last reported at 2017-Feb-21 21:27 UTC. Time now 2017-Feb-21 21:35 UTC.
Position N 48°48' W 005°53'.

Length 101 m; draft 5.8 m.

Type: Cargo ship. MMSI: 246227000.

Date/timePositionNaut miles runAvg speedWind from/ knotsBaromVisibWave heightAir tempDewpointWater temp
2017-Feb-21 21:27N 48°48' W 005°53'13610.1
2017-Feb-21 08:03N 49°59' W 002°56'11610.1
2017-Feb-20 20:33N 50°31' W 000°02'1211.0
2017-Feb-20 19:30N 50°35' E 000°16'1010.5
2017-Feb-20 18:33N 50°37' E 000°31'1010.1
2017-Feb-20 17:33N 50°43' E 000°44'3310.5
2017-Feb-20 14:27N 51°03' E 001°25'1011.7
2017-Feb-20 13:33N 51°10' E 001°38'1211.6
2017-Feb-20 12:33N 51°18' E 001°51'1010.3
2017-Feb-20 11:33N 51°24' E 002°04'1110.7
2017-Feb-20 10:33N 51°21' E 002°20'1010.5
2017-Feb-20 09:33N 51°23' E 002°37'1010.5
2017-Feb-20 08:33N 51°22' E 002°54'1010.3
2017-Feb-20 07:33N 51°23' E 003°10'1010.0
2017-Feb-20 06:33N 51°25' E 003°26'9 8.6
2017-Feb-20 05:33N 51°25' E 003°40'8 7.6
2017-Feb-20 04:33N 51°20' E 003°49'2 2.4
2017-Feb-20 03:33N 51°18' E 003°50'7 6.9
2017-Feb-20 02:33N 51°11' E 003°48'0 0.4
2017-Feb-20 01:33N 51°11' E 003°48'0 0.0
2017-Feb-20 00:30N 51°11' E 003°48'0 0.0
2017-Feb-19 23:33N 51°11' E 003°48'0 0.0
2017-Feb-19 22:30N 51°11' E 003°48'0 0.0
2017-Feb-19 21:30N 51°11' E 003°48'0 0.0
2017-Feb-19 20:33N 51°11' E 003°48'0 0.0
2017-Feb-19 19:33N 51°11' E 003°48'0 0.0
2017-Feb-19 18:33N 51°11' E 003°48'0 0.0
2017-Feb-19 17:27N 51°11' E 003°48'0 0.0
2017-Feb-19 16:30N 51°11' E 003°48'0 0.0
2017-Feb-19 15:30N 51°11' E 003°48'0 0.0
2017-Feb-19 14:30N 51°11' E 003°48'0 0.0
2017-Feb-19 13:30N 51°11' E 003°48'0 0.0
2017-Feb-19 12:18N 51°11' E 003°48'0 0.0
2017-Feb-19 11:30N 51°11' E 003°48'0 0.0
2017-Feb-19 10:30N 51°11' E 003°48'0 0.0
2017-Feb-19 09:33N 51°11' E 003°48'0 0.0
2017-Feb-19 08:33N 51°11' E 003°48'0 0.0
2017-Feb-19 07:33N 51°11' E 003°48'0 0.0
2017-Feb-19 06:34N 51°11' E 003°48'0 0.0
2017-Feb-19 05:32N 51°11' E 003°48'0 0.4
2017-Feb-19 04:34N 51°10' E 003°48'1 1.1
2017-Feb-19 03:33N 51°09' E 003°47'0 0.0
2017-Feb-19 02:33N 51°09' E 003°47'0 0.0
2017-Feb-19 01:30N 51°09' E 003°47'0 0.0
2017-Feb-19 00:33N 51°09' E 003°47'0 0.0
2017-Feb-18 23:33N 51°09' E 003°47'0 0.0
2017-Feb-18 22:33N 51°09' E 003°47'0 0.0
2017-Feb-18 21:33N 51°09' E 003°47'0 0.0
2017-Feb-18 20:33N 51°09' E 003°47'0 0.0
2017-Feb-18 19:33N 51°09' E 003°47'0 0.0
2017-Feb-18 18:33N 51°09' E 003°47'0 0.0
2017-Feb-18 17:33N 51°09' E 003°47'0 0.0
2017-Feb-18 16:33N 51°09' E 003°47'0 0.0
2017-Feb-18 15:33N 51°09' E 003°47'0 0.0
2017-Feb-18 14:30N 51°09' E 003°47'0 0.0
2017-Feb-18 13:33N 51°09' E 003°47'0 0.0
2017-Feb-18 12:33N 51°09' E 003°47'0 0.0
2017-Feb-18 11:30N 51°09' E 003°47'0 0.0
2017-Feb-18 10:33N 51°09' E 003°47'0 0.0
2017-Feb-18 09:33N 51°09' E 003°47'0 0.0
2017-Feb-18 08:30N 51°09' E 003°47'0 0.0
2017-Feb-18 07:33N 51°09' E 003°47'0 0.0
2017-Feb-18 06:30N 51°09' E 003°47'0 0.0
2017-Feb-18 05:27N 51°09' E 003°47'0 0.0
2017-Feb-18 04:30N 51°09' E 003°47'0 0.0
2017-Feb-18 03:27N 51°09' E 003°47'0 0.0
2017-Feb-18 02:30N 51°09' E 003°47'0 0.0
2017-Feb-18 01:27N 51°09' E 003°47'0 0.0
2017-Feb-18 00:33N 51°09' E 003°47'0 0.0
2017-Feb-17 23:33N 51°09' E 003°47'0 0.0
2017-Feb-17 22:33N 51°09' E 003°47'0 0.0
2017-Feb-17 21:33N 51°09' E 003°47'0 0.0
2017-Feb-17 20:30N 51°09' E 003°47'0 0.0
2017-Feb-17 19:33N 51°09' E 003°47'0 0.0
2017-Feb-17 18:33N 51°09' E 003°47'0 0.0
2017-Feb-17 17:30N 51°09' E 003°47'0 0.0
2017-Feb-17 16:33N 51°09' E 003°47'0 0.0
2017-Feb-17 15:33N 51°09' E 003°47'0 0.0
2017-Feb-17 14:33N 51°09' E 003°47'0 0.0
2017-Feb-17 13:33N 51°09' E 003°47'0 0.0
2017-Feb-17 12:33N 51°09' E 003°47'0 0.0
2017-Feb-17 11:33N 51°09' E 003°47'0 0.0
2017-Feb-17 10:33N 51°09' E 003°47'0 0.0
2017-Feb-17 09:29N 51°09' E 003°47'0 0.0
2017-Feb-17 08:32N 51°09' E 003°47'0 0.0
2017-Feb-17 07:32N 51°09' E 003°47'0 0.0
2017-Feb-17 06:29N 51°09' E 003°47'0 0.0
2017-Feb-17 05:32N 51°09' E 003°47'0 0.0
2017-Feb-17 04:23N 51°09' E 003°47'0 0.0
2017-Feb-17 03:32N 51°09' E 003°47'0 0.0
2017-Feb-17 02:32N 51°09' E 003°47'0 0.0
2017-Feb-17 01:31N 51°09' E 003°47'0 0.0
2017-Feb-17 00:31N 51°09' E 003°47'0 0.0
2017-Feb-16 23:31N 51°09' E 003°47'0 0.0
2017-Feb-16 22:33N 51°09' E 003°47'3 2.8
2017-Feb-16 21:33N 51°12' E 003°48'7 6.8
2017-Feb-16 20:33N 51°19' E 003°50'1 1.4
2017-Feb-16 19:33N 51°20' E 003°49'4 4.0
2017-Feb-16 18:33N 51°22' E 003°44'6 5.6
2017-Feb-16 17:33N 51°26' E 003°36'9 9.1
2017-Feb-16 16:33N 51°32' E 003°25'1111.4
2017-Feb-16 15:33N 51°42' E 003°17'6 6.3
2017-Feb-16 14:33N 51°48' E 003°14'4 4.2
2017-Feb-16 13:33N 51°52' E 003°17'19510.2
2017-Feb-15 18:21N 53°59' E 007°23'1211.9
2017-Feb-15 17:19N 53°57' E 007°44'5 6.4
2017-Feb-15 16:30N 53°54' E 007°52'0 0.0
2017-Feb-15 15:26N 53°54' E 007°52'0 0.1
2017-Feb-15 13:16N 53°54' E 007°52'0 0.0
2017-Feb-15 12:31N 53°54' E 007°52'0 0.0
2017-Feb-15 10:31N 53°54' E 007°52'0 0.0
2017-Feb-15 09:28N 53°54' E 007°52'0 0.1
2017-Feb-15 08:30N 53°54' E 007°52'3 0.3
2017-Feb-14 23:16N 53°52' E 007°54'710.4
2017-Feb-14 22:33N 53°50' E 008°06'1110.6
2017-Feb-14 21:33N 53°43' E 008°19'1313.3
2017-Feb-14 20:33N 53°33' E 008°34'1212.3
2017-Feb-14 19:33N 53°21' E 008°30'1110.9
2017-Feb-14 18:33N 53°10' E 008°36'5 5.0
2017-Feb-14 17:33N 53°07' E 008°43'0 0.3
2017-Feb-14 16:32N 53°07' E 008°43'0 0.0
2017-Feb-14 15:31N 53°07' E 008°43'0 0.0
2017-Feb-14 14:32N 53°07' E 008°43'0 0.0
2017-Feb-14 13:32N 53°07' E 008°43'0 0.0
2017-Feb-14 12:32N 53°07' E 008°43'0 0.0
2017-Feb-14 11:32N 53°07' E 008°43'0 0.0
2017-Feb-14 10:31N 53°07' E 008°43'0 0.0
2017-Feb-14 09:32N 53°07' E 008°43'0 0.0
2017-Feb-14 08:32N 53°07' E 008°43'0 0.0
2017-Feb-14 07:31N 53°07' E 008°43'0 0.0
2017-Feb-14 06:32N 53°07' E 008°43'0 0.0
2017-Feb-14 05:32N 53°07' E 008°43'0 0.0
2017-Feb-14 04:32N 53°07' E 008°43'0 0.0
2017-Feb-14 03:32N 53°07' E 008°43'0 0.0
2017-Feb-14 02:32N 53°07' E 008°43'0 0.0
2017-Feb-14 01:32N 53°07' E 008°43'0 0.4
2017-Feb-14 00:33N 53°07' E 008°43'1 1.3
2017-Feb-13 23:34N 53°07' E 008°41'4 3.5
2017-Feb-13 22:33N 53°10' E 008°37'6 5.5
2017-Feb-13 21:34N 53°13' E 008°29'8 8.0
2017-Feb-13 20:33N 53°21' E 008°30'9 8.5
2017-Feb-13 19:33N 53°30' E 008°30'6 6.3
2017-Feb-13 18:34N 53°36' E 008°30'7 7.5
2017-Feb-13 17:33N 53°41' E 008°21'8 7.6
2017-Feb-13 16:33N 53°46' E 008°11'8 7.1
2017-Feb-13 15:29N 53°51' E 008°01'110 5.3
2017-Feb-12 18:32N 53°27' E 004°60'9 9.1
2017-Feb-12 17:32N 53°24' E 004°45'28 9.4
2017-Feb-12 14:31N 52°59' E 004°22'8 8.5
2017-Feb-12 13:33N 52°52' E 004°17'74 8.0
2017-Feb-12 04:13N 51°47' E 003°16'1710.3
2017-Feb-12 02:33N 51°31' E 003°26'9 8.8
2017-Feb-12 01:33N 51°26' E 003°38'7 7.0
2017-Feb-12 00:33N 51°22' E 003°46'3 3.0
2017-Feb-11 23:34N 51°19' E 003°49'4 4.4
2017-Feb-11 22:33N 51°15' E 003°49'4 4.3
2017-Feb-11 21:32N 51°11' E 003°48'  
Track history (hours):
 
Tides and Currents Weather Stations Pressure Air Temp Water Temp Dewpoint Dewpoint Depression Visibility Wind Speed Wind Dir Waves Ship Positions

Flinter Rose

Last reported at 2017-Feb-21 21:27 UTC. Time now 2017-Feb-21 21:35 UTC.
Position N 48°48' W 005°53'.

Length 101 m; draft 5.8 m.

Type: Cargo ship. MMSI: 246227000.

Date/timePositionNaut miles runAvg speedWind from/ knotsBaromVisibWave heightAir tempDewpointWater temp
2017-Feb-21 21:27N 48°48' W 005°53'13610.1
2017-Feb-21 08:03N 49°59' W 002°56'11610.1
2017-Feb-20 20:33N 50°31' W 000°02'1211.0
2017-Feb-20 19:30N 50°35' E 000°16'1010.5
2017-Feb-20 18:33N 50°37' E 000°31'1010.1
2017-Feb-20 17:33N 50°43' E 000°44'3310.5
2017-Feb-20 14:27N 51°03' E 001°25'1011.7
2017-Feb-20 13:33N 51°10' E 001°38'1211.6
2017-Feb-20 12:33N 51°18' E 001°51'1010.3
2017-Feb-20 11:33N 51°24' E 002°04'1110.7
2017-Feb-20 10:33N 51°21' E 002°20'1010.5
2017-Feb-20 09:33N 51°23' E 002°37'1010.5
2017-Feb-20 08:33N 51°22' E 002°54'1010.3
2017-Feb-20 07:33N 51°23' E 003°10'1010.0
2017-Feb-20 06:33N 51°25' E 003°26'9 8.6
2017-Feb-20 05:33N 51°25' E 003°40'8 7.6
2017-Feb-20 04:33N 51°20' E 003°49'2 2.4
2017-Feb-20 03:33N 51°18' E 003°50'7 6.9
2017-Feb-20 02:33N 51°11' E 003°48'0 0.4
2017-Feb-20 01:33N 51°11' E 003°48'0 0.0
2017-Feb-20 00:30N 51°11' E 003°48'0 0.0
2017-Feb-19 23:33N 51°11' E 003°48'0 0.0
2017-Feb-19 22:30N 51°11' E 003°48'0 0.0
2017-Feb-19 21:30N 51°11' E 003°48'0 0.0
2017-Feb-19 20:33N 51°11' E 003°48'0 0.0
2017-Feb-19 19:33N 51°11' E 003°48'0 0.0
2017-Feb-19 18:33N 51°11' E 003°48'0 0.0
2017-Feb-19 17:27N 51°11' E 003°48'0 0.0
2017-Feb-19 16:30N 51°11' E 003°48'0 0.0
2017-Feb-19 15:30N 51°11' E 003°48'0 0.0
2017-Feb-19 14:30N 51°11' E 003°48'0 0.0
2017-Feb-19 13:30N 51°11' E 003°48'0 0.0
2017-Feb-19 12:18N 51°11' E 003°48'0 0.0
2017-Feb-19 11:30N 51°11' E 003°48'0 0.0
2017-Feb-19 10:30N 51°11' E 003°48'0 0.0
2017-Feb-19 09:33N 51°11' E 003°48'0 0.0
2017-Feb-19 08:33N 51°11' E 003°48'0 0.0
2017-Feb-19 07:33N 51°11' E 003°48'0 0.0
2017-Feb-19 06:34N 51°11' E 003°48'0 0.0
2017-Feb-19 05:32N 51°11' E 003°48'0 0.4
2017-Feb-19 04:34N 51°10' E 003°48'1 1.1
2017-Feb-19 03:33N 51°09' E 003°47'0 0.0
2017-Feb-19 02:33N 51°09' E 003°47'0 0.0
2017-Feb-19 01:30N 51°09' E 003°47'0 0.0
2017-Feb-19 00:33N 51°09' E 003°47'0 0.0
2017-Feb-18 23:33N 51°09' E 003°47'0 0.0
2017-Feb-18 22:33N 51°09' E 003°47'0 0.0
2017-Feb-18 21:33N 51°09' E 003°47'0 0.0
2017-Feb-18 20:33N 51°09' E 003°47'0 0.0
2017-Feb-18 19:33N 51°09' E 003°47'0 0.0
2017-Feb-18 18:33N 51°09' E 003°47'0 0.0
2017-Feb-18 17:33N 51°09' E 003°47'0 0.0
2017-Feb-18 16:33N 51°09' E 003°47'0 0.0
2017-Feb-18 15:33N 51°09' E 003°47'0 0.0
2017-Feb-18 14:30N 51°09' E 003°47'0 0.0
2017-Feb-18 13:33N 51°09' E 003°47'0 0.0
2017-Feb-18 12:33N 51°09' E 003°47'0 0.0
2017-Feb-18 11:30N 51°09' E 003°47'0 0.0
2017-Feb-18 10:33N 51°09' E 003°47'0 0.0
2017-Feb-18 09:33N 51°09' E 003°47'0 0.0
2017-Feb-18 08:30N 51°09' E 003°47'0 0.0
2017-Feb-18 07:33N 51°09' E 003°47'0 0.0
2017-Feb-18 06:30N 51°09' E 003°47'0 0.0
2017-Feb-18 05:27N 51°09' E 003°47'0 0.0
2017-Feb-18 04:30N 51°09' E 003°47'0 0.0
2017-Feb-18 03:27N 51°09' E 003°47'0 0.0
2017-Feb-18 02:30N 51°09' E 003°47'0 0.0
2017-Feb-18 01:27N 51°09' E 003°47'0 0.0
2017-Feb-18 00:33N 51°09' E 003°47'0 0.0
2017-Feb-17 23:33N 51°09' E 003°47'0 0.0
2017-Feb-17 22:33N 51°09' E 003°47'0 0.0
2017-Feb-17 21:33N 51°09' E 003°47'0 0.0
2017-Feb-17 20:30N 51°09' E 003°47'0 0.0
2017-Feb-17 19:33N 51°09' E 003°47'0 0.0
2017-Feb-17 18:33N 51°09' E 003°47'0 0.0
2017-Feb-17 17:30N 51°09' E 003°47'0 0.0
2017-Feb-17 16:33N 51°09' E 003°47'0 0.0
2017-Feb-17 15:33N 51°09' E 003°47'0 0.0
2017-Feb-17 14:33N 51°09' E 003°47'0 0.0
2017-Feb-17 13:33N 51°09' E 003°47'0 0.0
2017-Feb-17 12:33N 51°09' E 003°47'0 0.0
2017-Feb-17 11:33N 51°09' E 003°47'0 0.0
2017-Feb-17 10:33N 51°09' E 003°47'0 0.0
2017-Feb-17 09:29N 51°09' E 003°47'0 0.0
2017-Feb-17 08:32N 51°09' E 003°47'0 0.0
2017-Feb-17 07:32N 51°09' E 003°47'0 0.0
2017-Feb-17 06:29N 51°09' E 003°47'0 0.0
2017-Feb-17 05:32N 51°09' E 003°47'0 0.0
2017-Feb-17 04:23N 51°09' E 003°47'0 0.0
2017-Feb-17 03:32N 51°09' E 003°47'0 0.0
2017-Feb-17 02:32N 51°09' E 003°47'0 0.0
2017-Feb-17 01:31N 51°09' E 003°47'0 0.0
2017-Feb-17 00:31N 51°09' E 003°47'0 0.0
2017-Feb-16 23:31N 51°09' E 003°47'0 0.0
2017-Feb-16 22:33N 51°09' E 003°47'3 2.8
2017-Feb-16 21:33N 51°12' E 003°48'7 6.8
2017-Feb-16 20:33N 51°19' E 003°50'1 1.4
2017-Feb-16 19:33N 51°20' E 003°49'4 4.0
2017-Feb-16 18:33N 51°22' E 003°44'6 5.6
2017-Feb-16 17:33N 51°26' E 003°36'9 9.1
2017-Feb-16 16:33N 51°32' E 003°25'1111.4
2017-Feb-16 15:33N 51°42' E 003°17'6 6.3
2017-Feb-16 14:33N 51°48' E 003°14'4 4.2
2017-Feb-16 13:33N 51°52' E 003°17'19510.2
2017-Feb-15 18:21N 53°59' E 007°23'1211.9
2017-Feb-15 17:19N 53°57' E 007°44'5 6.4
2017-Feb-15 16:30N 53°54' E 007°52'0 0.0
2017-Feb-15 15:26N 53°54' E 007°52'0 0.1
2017-Feb-15 13:16N 53°54' E 007°52'0 0.0
2017-Feb-15 12:31N 53°54' E 007°52'0 0.0
2017-Feb-15 10:31N 53°54' E 007°52'0 0.0
2017-Feb-15 09:28N 53°54' E 007°52'0 0.1
2017-Feb-15 08:30N 53°54' E 007°52'3 0.3
2017-Feb-14 23:16N 53°52' E 007°54'710.4
2017-Feb-14 22:33N 53°50' E 008°06'1110.6
2017-Feb-14 21:33N 53°43' E 008°19'1313.3
2017-Feb-14 20:33N 53°33' E 008°34'1212.3
2017-Feb-14 19:33N 53°21' E 008°30'1110.9
2017-Feb-14 18:33N 53°10' E 008°36'5 5.0
2017-Feb-14 17:33N 53°07' E 008°43'0 0.3
2017-Feb-14 16:32N 53°07' E 008°43'0 0.0
2017-Feb-14 15:31N 53°07' E 008°43'0 0.0
2017-Feb-14 14:32N 53°07' E 008°43'0 0.0
2017-Feb-14 13:32N 53°07' E 008°43'0 0.0
2017-Feb-14 12:32N 53°07' E 008°43'0 0.0
2017-Feb-14 11:32N 53°07' E 008°43'0 0.0
2017-Feb-14 10:31N 53°07' E 008°43'0 0.0
2017-Feb-14 09:32N 53°07' E 008°43'0 0.0
2017-Feb-14 08:32N 53°07' E 008°43'0 0.0
2017-Feb-14 07:31N 53°07' E 008°43'0 0.0
2017-Feb-14 06:32N 53°07' E 008°43'0 0.0
2017-Feb-14 05:32N 53°07' E 008°43'0 0.0
2017-Feb-14 04:32N 53°07' E 008°43'0 0.0
2017-Feb-14 03:32N 53°07' E 008°43'0 0.0
2017-Feb-14 02:32N 53°07' E 008°43'0 0.0
2017-Feb-14 01:32N 53°07' E 008°43'0 0.4
2017-Feb-14 00:33N 53°07' E 008°43'1 1.3
2017-Feb-13 23:34N 53°07' E 008°41'4 3.5
2017-Feb-13 22:33N 53°10' E 008°37'6 5.5
2017-Feb-13 21:34N 53°13' E 008°29'8 8.0
2017-Feb-13 20:33N 53°21' E 008°30'9 8.5
2017-Feb-13 19:33N 53°30' E 008°30'6 6.3
2017-Feb-13 18:34N 53°36' E 008°30'7 7.5
2017-Feb-13 17:33N 53°41' E 008°21'8 7.6
2017-Feb-13 16:33N 53°46' E 008°11'8 7.1
2017-Feb-13 15:29N 53°51' E 008°01'110 5.3
2017-Feb-12 18:32N 53°27' E 004°60'9 9.1
2017-Feb-12 17:32N 53°24' E 004°45'28 9.4
2017-Feb-12 14:31N 52°59' E 004°22'8 8.5
2017-Feb-12 13:33N 52°52' E 004°17'74 8.0
2017-Feb-12 04:13N 51°47' E 003°16'1710.3
2017-Feb-12 02:33N 51°31' E 003°26'9 8.8
2017-Feb-12 01:33N 51°26' E 003°38'7 7.0
2017-Feb-12 00:33N 51°22' E 003°46'3 3.0
2017-Feb-11 23:34N 51°19' E 003°49'4 4.4
2017-Feb-11 22:33N 51°15' E 003°49'4 4.3
2017-Feb-11 21:32N 51°11' E 003°48'  

Dump ship's entire track history